Terminal Aerodrome Forecast
Issued by NWS

Home | Current Version | Previous Version | Text Only | Print | Product List | Glossary On
Versions: 1 2 3 4 5 6 7 8 9 10 11 12 13 14 15 16 17 18 19 20
994
FTUS45 KTFX 181406 AAA
TAFBZN
TAF AMD
KBZN 181406Z 1814/1918 23015G25KT P6SM BKN090
     FM182000 23011G21KT P6SM SCT040 BKN090 PROB30 1900/1906 4SM
      -RASN BR SCT015 OVC030
     FM191500 VRB05KT 4SM -SHSN BR SCT025 OVC050=

USA.gov is the U.S. government's official web portal to all federal, state and local government web resources and services.